Time;durP1;ratioP1;P1;durP2;ratioP2;P2;SDS_P1;SDS_P2;PMS_P1;PMS_P2;Temp;Humidity;BMP_temperature;BMP_pressure;BME280_temperature;BME280_humidity;BME280_pressure;Samples;Min_cycle;Max_cycle;Signal;HPM_P1;HPM_P2
2022/05/20 00:00:57;;;;;;;;;0.00;0.00;;;;;;;;4980685;28;45755;-72
2022/05/20 00:03:22;;;;;;;;;0.00;0.00;;;;;;;;4992896;28;45477;-72
2022/05/20 00:05:48;;;;;;;;;1.33;0.00;;;;;;;;4984752;28;45377;-72
2022/05/20 00:08:13;;;;;;;;;0.00;0.00;;;;;;;;4984427;28;45618;-72
2022/05/20 00:10:39;;;;;;;;;0.00;0.00;;;;;;;;4982098;28;46293;-72
2022/05/20 00:13:04;;;;;;;;;1.00;0.00;;;;;;;;4993502;28;45439;-72
2022/05/20 00:15:30;;;;;;;;;0.00;0.00;;;;;;;;4992831;28;45490;-72
2022/05/20 00:17:56;;;;;;;;;0.00;0.00;;;;;;;;4983065;28;45360;-72
2022/05/20 00:20:22;;;;;;;;;0.00;0.00;;;;;;;;4990328;28;46464;-72
2022/05/20 00:22:47;;;;;;;;;0.00;0.00;;;;;;;;4994396;28;45354;-72
2022/05/20 00:27:58;;;;;;;;;0.00;0.00;;;;;;;;4979259;28;45376;-72
2022/05/20 00:30:24;;;;;;;;;1.00;0.00;;;;;;;;4976959;28;47047;-72
2022/05/20 00:32:49;;;;;;;;;1.00;1.00;;;;;;;;4983625;28;45409;-72
2022/05/20 00:35:15;;;;;;;;;0.33;0.33;;;;;;;;4987334;28;45385;-72
2022/05/20 00:37:40;;;;;;;;;1.67;1.00;;;;;;;;4992711;28;45577;-72
2022/05/20 00:40:07;;;;;;;;;1.33;0.00;;;;;;;;4979520;28;45947;-72
2022/05/20 00:42:33;;;;;;;;;1.00;1.00;;;;;;;;4993578;28;45623;-72
2022/05/20 00:44:58;;;;;;;;;1.00;0.00;;;;;;;;4980639;28;45396;-72
2022/05/20 00:47:24;;;;;;;;;0.00;0.00;;;;;;;;4983997;28;45519;-72
2022/05/20 00:49:52;;;;;;;;;1.33;1.33;;;;;;;;4983694;28;47073;-72
2022/05/20 00:52:20;;;;;;;;;0.33;0.00;;;;;;;;4988586;28;45384;-72
2022/05/20 00:54:47;;;;;;;;;0.00;0.00;;;;;;;;4978752;28;45427;-72
2022/05/20 00:57:15;;;;;;;;;1.00;1.00;;;;;;;;4980569;28;45503;-72
2022/05/20 00:59:43;;;;;;;;;0.33;0.33;;;;;;;;4983877;28;47267;-72
2022/05/20 01:02:14;;;;;;;;;1.00;0.00;;;;;;;;4983759;28;45333;-72
2022/05/20 01:04:40;;;;;;;;;0.67;0.00;;;;;;;;4984946;28;45511;-72
2022/05/20 01:07:06;;;;;;;;;0.00;0.00;;;;;;;;4979532;28;45308;-72
2022/05/20 01:09:31;;;;;;;;;0.00;0.00;;;;;;;;4992668;28;46206;-72
2022/05/20 01:11:56;;;;;;;;;0.00;0.00;;;;;;;;4991172;28;45445;-72
2022/05/20 01:14:23;;;;;;;;;0.00;0.00;;;;;;;;4986395;28;45319;-72
2022/05/20 01:16:49;;;;;;;;;0.00;0.00;;;;;;;;4984039;28;45421;-72
2022/05/20 01:19:18;;;;;;;;;2.00;0.67;;;;;;;;4993365;28;45473;-72
2022/05/20 01:21:44;;;;;;;;;1.00;1.00;;;;;;;;4979087;28;45462;-72
2022/05/20 01:24:09;;;;;;;;;0.00;0.00;;;;;;;;4982500;28;45420;-72
2022/05/20 01:26:34;;;;;;;;;0.00;0.00;;;;;;;;4984547;28;45494;-72
2022/05/20 01:29:00;;;;;;;;;2.33;0.33;;;;;;;;4987844;28;47084;-72
2022/05/20 01:31:25;;;;;;;;;0.00;0.00;;;;;;;;4990124;28;45530;-72
2022/05/20 01:33:51;;;;;;;;;0.00;0.00;;;;;;;;4993908;28;45364;-72
2022/05/20 01:36:21;;;;;;;;;3.33;0.00;;;;;;;;4991760;28;45429;-72
2022/05/20 01:38:47;;;;;;;;;1.00;1.00;;;;;;;;4988952;28;45529;-72
2022/05/20 01:41:14;;;;;;;;;0.00;0.00;;;;;;;;4987200;28;45460;-72
2022/05/20 01:43:48;;;;;;;;;1.00;0.33;;;;;;;;4981521;28;45361;-72
2022/05/20 01:46:25;;;;;;;;;0.00;0.00;;;;;;;;4993110;28;45430;-72
2022/05/20 01:49:00;;;;;;;;;1.00;1.00;;;;;;;;4979175;28;47496;-72
2022/05/20 01:51:28;;;;;;;;;2.00;1.00;;;;;;;;4977192;28;45530;-72
2022/05/20 01:53:57;;;;;;;;;0.00;0.00;;;;;;;;4990672;28;45296;-72
2022/05/20 01:56:29;;;;;;;;;0.00;0.00;;;;;;;;4985874;28;45471;-72
2022/05/20 01:59:13;;;;;;;;;0.00;0.00;;;;;;;;4983413;28;47070;-72
2022/05/20 02:01:43;;;;;;;;;0.67;0.67;;;;;;;;4990420;28;45471;-72
2022/05/20 02:04:30;;;;;;;;;1.00;1.00;;;;;;;;4997711;28;45306;-72
2022/05/20 02:06:58;;;;;;;;;0.00;0.00;;;;;;;;4983116;28;45362;-73
2022/05/20 02:09:37;;;;;;;;;0.00;0.00;;;;;;;;4981912;28;46442;-72
2022/05/20 02:12:03;;;;;;;;;1.00;0.00;;;;;;;;4982882;28;45514;-72
2022/05/20 02:14:35;;;;;;;;;2.00;0.00;;;;;;;;4986458;28;45519;-72
2022/05/20 02:17:18;;;;;;;;;1.00;0.00;;;;;;;;4987222;28;45266;-72
2022/05/20 02:19:47;;;;;;;;;0.00;0.00;;;;;;;;4994146;28;46377;-72
2022/05/20 02:22:15;;;;;;;;;0.00;0.00;;;;;;;;4984972;28;45400;-72
2022/05/20 02:24:41;;;;;;;;;0.00;0.00;;;;;;;;4981599;28;45392;-72
2022/05/20 02:27:08;;;;;;;;;0.00;0.00;;;;;;;;4993736;28;45499;-72
2022/05/20 02:29:42;;;;;;;;;0.00;0.00;;;;;;;;4987245;28;46304;-72
2022/05/20 02:32:14;;;;;;;;;0.67;0.67;;;;;;;;4986084;28;45476;-72
2022/05/20 02:34:40;;;;;;;;;1.00;0.00;;;;;;;;4985700;28;45511;-72
2022/05/20 02:37:24;;;;;;;;;1.00;1.00;;;;;;;;4981566;28;45414;-72
2022/05/20 02:39:49;;;;;;;;;1.00;0.00;;;;;;;;4981702;28;47015;-72
2022/05/20 02:42:14;;;;;;;;;2.00;0.00;;;;;;;;4993583;28;45438;-72
2022/05/20 02:44:39;;;;;;;;;0.00;0.00;;;;;;;;4992603;28;45207;-72
2022/05/20 02:47:05;;;;;;;;;0.00;0.00;;;;;;;;4992395;28;45527;-72
2022/05/20 02:49:30;;;;;;;;;0.00;0.00;;;;;;;;4995139;28;45436;-72
2022/05/20 02:51:55;;;;;;;;;1.00;0.00;;;;;;;;4982472;28;45551;-72
2022/05/20 02:54:20;;;;;;;;;0.00;0.00;;;;;;;;4989936;28;45278;-72
2022/05/20 02:56:46;;;;;;;;;1.00;0.00;;;;;;;;4992992;28;45552;-72
2022/05/20 03:04:40;;;;;;;;;2.00;0.00;;;;;;;;4985348;28;45483;-72
2022/05/20 03:07:05;;;;;;;;;0.00;0.00;;;;;;;;4994096;28;45376;-72
2022/05/20 03:09:30;;;;;;;;;0.00;0.00;;;;;;;;4995762;28;45444;-73
2022/05/20 03:11:55;;;;;;;;;0.33;0.33;;;;;;;;4996915;28;45458;-72
2022/05/20 03:14:22;;;;;;;;;0.00;0.00;;;;;;;;4985886;28;45443;-72
2022/05/20 03:16:47;;;;;;;;;0.00;0.00;;;;;;;;4985340;28;45326;-73
2022/05/20 03:19:13;;;;;;;;;0.67;0.67;;;;;;;;4983747;28;46618;-72
2022/05/20 03:21:39;;;;;;;;;0.33;0.33;;;;;;;;4995637;28;45281;-72
2022/05/20 03:24:06;;;;;;;;;0.00;0.00;;;;;;;;4984167;28;45539;-72
2022/05/20 03:26:32;;;;;;;;;0.00;0.00;;;;;;;;4986446;28;45331;-72
2022/05/20 03:29:02;;;;;;;;;0.00;0.00;;;;;;;;4989624;28;47507;-72
2022/05/20 03:31:27;;;;;;;;;0.00;0.00;;;;;;;;4991914;28;45325;-72
2022/05/20 03:33:53;;;;;;;;;0.00;0.00;;;;;;;;4996079;28;45611;-72
2022/05/20 03:36:18;;;;;;;;;0.00;0.00;;;;;;;;4981229;28;45488;-72
2022/05/20 03:38:43;;;;;;;;;0.00;0.00;;;;;;;;4984956;28;46284;-72
2022/05/20 03:41:10;;;;;;;;;0.00;0.00;;;;;;;;4987277;28;48644;-72
2022/05/20 03:43:35;;;;;;;;;0.00;0.00;;;;;;;;4996146;28;45569;-72
2022/05/20 03:46:00;;;;;;;;;0.00;0.00;;;;;;;;4995947;28;45709;-72
2022/05/20 03:48:26;;;;;;;;;1.00;0.00;;;;;;;;4980110;28;45647;-72
2022/05/20 03:50:51;;;;;;;;;0.00;0.00;;;;;;;;4984132;28;45505;-72
2022/05/20 03:53:16;;;;;;;;;0.00;0.00;;;;;;;;4988323;28;45331;-72
2022/05/20 03:55:42;;;;;;;;;0.00;0.00;;;;;;;;4993023;28;45365;-73
2022/05/20 03:58:07;;;;;;;;;2.33;0.00;;;;;;;;4982892;28;45413;-72
2022/05/20 04:01:56;;;;;;;;;1.00;1.00;;;;;;;;4980099;28;45468;-72
2022/05/20 04:03:18;;;;;;;;;0.00;0.00;;;;;;;;4992463;28;45475;-72
2022/05/20 04:05:43;;;;;;;;;0.00;0.00;;;;;;;;4984877;28;45560;-72
2022/05/20 04:08:09;;;;;;;;;0.00;0.00;;;;;;;;4986429;28;45480;-72
2022/05/20 04:10:34;;;;;;;;;0.00;0.00;;;;;;;;4993729;28;45341;-72
2022/05/20 04:12:59;;;;;;;;;0.00;0.00;;;;;;;;4981965;28;45419;-72
2022/05/20 04:15:25;;;;;;;;;0.33;0.00;;;;;;;;4979925;28;45353;-72
2022/05/20 04:17:50;;;;;;;;;1.00;1.00;;;;;;;;4983795;28;46260;-72
2022/05/20 04:20:15;;;;;;;;;1.00;1.00;;;;;;;;4984325;28;45490;-72
2022/05/20 04:22:40;;;;;;;;;0.67;0.67;;;;;;;;4984406;28;45319;-72
2022/05/20 04:25:06;;;;;;;;;0.00;0.00;;;;;;;;4982046;28;45474;-72
2022/05/20 04:27:31;;;;;;;;;2.00;0.00;;;;;;;;4979256;28;46824;-72
2022/05/20 04:29:57;;;;;;;;;0.67;0.00;;;;;;;;4991831;28;45464;-72
2022/05/20 04:32:22;;;;;;;;;0.67;0.67;;;;;;;;4990896;28;45339;-72
2022/05/20 04:34:48;;;;;;;;;0.00;0.00;;;;;;;;4991040;28;45480;-72
2022/05/20 04:37:14;;;;;;;;;0.00;0.00;;;;;;;;4995284;28;47050;-72
2022/05/20 04:39:39;;;;;;;;;0.00;0.00;;;;;;;;4979494;28;45196;-72
2022/05/20 04:47:32;;;;;;;;;0.00;0.00;;;;;;;;4983775;28;45653;-72
2022/05/20 04:49:58;;;;;;;;;0.00;0.00;;;;;;;;4984620;28;45397;-72
2022/05/20 04:52:23;;;;;;;;;0.00;0.00;;;;;;;;4993000;28;45436;-72
2022/05/20 04:54:52;;;;;;;;;0.00;0.00;;;;;;;;4995243;28;45486;-72
2022/05/20 04:57:25;;;;;;;;;0.00;0.00;;;;;;;;4992016;28;47092;-72
2022/05/20 04:59:51;;;;;;;;;1.00;0.00;;;;;;;;4982843;28;45305;-72
2022/05/20 05:02:17;;;;;;;;;0.00;0.00;;;;;;;;4987332;28;45464;-72
2022/05/20 05:04:43;;;;;;;;;0.00;0.00;;;;;;;;4983736;28;45375;-72
2022/05/20 05:07:09;;;;;;;;;0.00;0.00;;;;;;;;4982033;28;45515;-72
2022/05/20 05:09:35;;;;;;;;;0.00;0.00;;;;;;;;4979242;28;45379;-72
2022/05/20 05:12:00;;;;;;;;;0.00;0.00;;;;;;;;4995752;28;45432;-73
2022/05/20 05:14:25;;;;;;;;;0.67;0.67;;;;;;;;4991734;28;45396;-72
2022/05/20 05:16:51;;;;;;;;;0.00;0.00;;;;;;;;4990301;28;45268;-73
2022/05/20 05:19:16;;;;;;;;;1.33;0.00;;;;;;;;4994746;28;45432;-72
2022/05/20 05:21:41;;;;;;;;;0.67;0.33;;;;;;;;4979167;28;45342;-72
2022/05/20 05:24:07;;;;;;;;;0.00;0.00;;;;;;;;4990718;28;45418;-72
2022/05/20 05:26:34;;;;;;;;;0.00;0.00;;;;;;;;4990191;28;46838;-72
2022/05/20 05:29:00;;;;;;;;;3.00;0.00;;;;;;;;4994335;28;45499;-72
2022/05/20 05:31:26;;;;;;;;;0.00;0.00;;;;;;;;4994198;28;45304;-72
2022/05/20 05:33:52;;;;;;;;;0.00;0.00;;;;;;;;4979376;28;45482;-72
2022/05/20 05:36:18;;;;;;;;;1.00;0.00;;;;;;;;4979939;28;46029;-72
2022/05/20 05:38:43;;;;;;;;;0.00;0.00;;;;;;;;4986727;28;45597;-72
2022/05/20 05:41:10;;;;;;;;;1.00;0.00;;;;;;;;4993596;28;45393;-72
2022/05/20 05:43:35;;;;;;;;;0.00;0.00;;;;;;;;4993141;28;45579;-72
2022/05/20 05:46:00;;;;;;;;;1.00;0.00;;;;;;;;4996186;28;46372;-72
2022/05/20 05:48:25;;;;;;;;;0.00;0.00;;;;;;;;4995173;28;45416;-72
2022/05/20 05:50:51;;;;;;;;;0.00;0.00;;;;;;;;4986380;28;45433;-72
2022/05/20 05:53:17;;;;;;;;;0.00;0.00;;;;;;;;4986735;28;45473;-72
2022/05/20 05:55:44;;;;;;;;;0.00;0.00;;;;;;;;4984815;28;45427;-72
2022/05/20 05:58:10;;;;;;;;;0.00;0.00;;;;;;;;4994471;28;45388;-72
2022/05/20 06:00:35;;;;;;;;;0.00;0.00;;;;;;;;4996185;28;45376;-72
2022/05/20 06:03:01;;;;;;;;;3.00;0.00;;;;;;;;4985219;28;45389;-73
2022/05/20 06:05:26;;;;;;;;;0.00;0.00;;;;;;;;4990774;28;47437;-73
2022/05/20 06:07:52;;;;;;;;;0.00;0.00;;;;;;;;4996113;28;45420;-73
2022/05/20 06:10:18;;;;;;;;;0.00;0.00;;;;;;;;4993923;28;45317;-73
2022/05/20 06:12:43;;;;;;;;;0.00;0.00;;;;;;;;4996610;28;45365;-72
2022/05/20 06:15:10;;;;;;;;;0.00;0.00;;;;;;;;4992346;28;46072;-72
2022/05/20 06:17:35;;;;;;;;;0.00;0.00;;;;;;;;4992551;28;45527;-72
2022/05/20 06:20:01;;;;;;;;;0.33;0.00;;;;;;;;4991973;28;45484;-73
2022/05/20 06:22:26;;;;;;;;;0.00;0.00;;;;;;;;4986520;28;45517;-73
2022/05/20 06:24:52;;;;;;;;;0.00;0.00;;;;;;;;4982231;28;47364;-78
2022/05/20 06:27:17;;;;;;;;;1.00;0.00;;;;;;;;4985366;28;45450;-70
2022/05/20 06:29:42;;;;;;;;;2.00;1.00;;;;;;;;4995256;28;45440;-71
2022/05/20 06:32:07;;;;;;;;;0.67;0.00;;;;;;;;4993587;28;45424;-73
2022/05/20 06:39:49;;;;;;;;;0.00;0.00;;;;;;;;4993520;28;46039;-73
2022/05/20 06:40:07;;;;;;;;;1.00;0.00;;;;;;;;4995173;28;45391;-72
2022/05/20 06:42:32;;;;;;;;;0.33;0.33;;;;;;;;4996045;28;45506;-72
2022/05/20 06:44:57;;;;;;;;;1.00;1.00;;;;;;;;4996709;28;47273;-72
2022/05/20 06:47:22;;;;;;;;;1.67;0.00;;;;;;;;4993412;28;45436;-73
2022/05/20 06:49:48;;;;;;;;;0.00;0.00;;;;;;;;4995943;28;45562;-72
2022/05/20 06:52:13;;;;;;;;;0.67;0.67;;;;;;;;4995419;28;45467;-72
2022/05/20 06:54:38;;;;;;;;;2.00;0.67;;;;;;;;4995429;28;46017;-72
2022/05/20 06:57:04;;;;;;;;;0.67;0.00;;;;;;;;4995171;28;45572;-71
2022/05/20 06:59:29;;;;;;;;;0.00;0.00;;;;;;;;4994338;28;45432;-72
2022/05/20 07:01:55;;;;;;;;;1.00;1.00;;;;;;;;4995658;28;45477;-71
2022/05/20 07:04:20;;;;;;;;;2.00;0.67;;;;;;;;4988126;28;46785;-72
2022/05/20 07:06:46;;;;;;;;;0.67;0.33;;;;;;;;4994399;28;45329;-72
2022/05/20 07:09:11;;;;;;;;;2.00;0.00;;;;;;;;4993094;28;45387;-72
2022/05/20 07:11:36;;;;;;;;;2.00;1.00;;;;;;;;4990271;28;45427;-72
2022/05/20 07:14:02;;;;;;;;;0.67;0.67;;;;;;;;4990773;28;47145;-71
2022/05/20 07:16:29;;;;;;;;;1.00;1.00;;;;;;;;4981922;28;45375;-72
2022/05/20 07:18:54;;;;;;;;;1.67;0.33;;;;;;;;4995906;28;45531;-72
2022/05/20 07:21:20;;;;;;;;;2.00;2.00;;;;;;;;4993042;28;45378;-71
2022/05/20 07:23:46;;;;;;;;;0.00;0.00;;;;;;;;4991910;28;46021;-71
2022/05/20 07:26:13;;;;;;;;;0.00;0.00;;;;;;;;4990835;28;45565;-71
2022/05/20 07:28:38;;;;;;;;;0.00;0.00;;;;;;;;4993835;28;45542;-72
2022/05/20 07:31:03;;;;;;;;;0.67;0.67;;;;;;;;4994113;28;45339;-72
2022/05/20 07:33:30;;;;;;;;;2.67;0.33;;;;;;;;4993495;28;47107;-72
2022/05/20 07:35:56;;;;;;;;;1.00;1.00;;;;;;;;4992192;28;45554;-72
2022/05/20 07:38:21;;;;;;;;;0.00;0.00;;;;;;;;4991568;28;45555;-71
2022/05/20 07:40:46;;;;;;;;;1.00;1.00;;;;;;;;4992266;28;45428;-72
2022/05/20 07:43:12;;;;;;;;;0.00;0.00;;;;;;;;4986568;28;47178;-71
2022/05/20 07:45:37;;;;;;;;;0.00;0.00;;;;;;;;4994350;28;45352;-72
2022/05/20 07:48:02;;;;;;;;;1.00;1.00;;;;;;;;4983080;28;45350;-72
2022/05/20 07:50:28;;;;;;;;;0.00;0.00;;;;;;;;4989200;28;45452;-72
2022/05/20 07:55:40;;;;;;;;;0.67;0.67;;;;;;;;4984170;28;45283;-72
2022/05/20 07:58:08;;;;;;;;;0.00;0.00;;;;;;;;4982812;28;45587;-72
2022/05/20 08:00:33;;;;;;;;;1.00;1.00;;;;;;;;4995203;28;45466;-72
2022/05/20 08:03:00;;;;;;;;;0.67;0.67;;;;;;;;4991922;28;46208;-72
2022/05/20 08:05:26;;;;;;;;;0.67;0.00;;;;;;;;4991324;28;45399;-72
2022/05/20 08:07:56;;;;;;;;;2.00;0.00;;;;;;;;4991426;28;45522;-71
2022/05/20 08:10:22;;;;;;;;;1.00;0.00;;;;;;;;4982169;28;45582;-72
2022/05/20 08:12:48;;;;;;;;;0.00;0.00;;;;;;;;4979671;28;45385;-72
2022/05/20 08:15:14;;;;;;;;;0.00;0.00;;;;;;;;4992018;28;45348;-71
2022/05/20 08:17:43;;;;;;;;;1.00;1.00;;;;;;;;4984986;28;45341;-72
2022/05/20 08:20:11;;;;;;;;;0.67;0.00;;;;;;;;4986598;28;45230;-72
2022/05/20 08:22:36;;;;;;;;;0.00;0.00;;;;;;;;4992969;28;46719;-72
2022/05/20 08:25:03;;;;;;;;;0.33;0.33;;;;;;;;4981696;28;45515;-71
2022/05/20 08:27:30;;;;;;;;;1.33;0.00;;;;;;;;4979825;28;45357;-71
2022/05/20 08:29:55;;;;;;;;;0.00;0.00;;;;;;;;4991389;28;45483;-71
2022/05/20 08:32:21;;;;;;;;;1.00;1.00;;;;;;;;4990613;28;46497;-72
2022/05/20 08:34:47;;;;;;;;;2.33;1.00;;;;;;;;4989468;28;45392;-72
2022/05/20 08:37:13;;;;;;;;;1.00;0.00;;;;;;;;4993902;28;45532;-72
2022/05/20 08:39:38;;;;;;;;;0.00;0.00;;;;;;;;4994637;28;45477;-72
2022/05/20 08:42:04;;;;;;;;;1.00;1.00;;;;;;;;4985780;28;45978;-72
2022/05/20 08:44:31;;;;;;;;;2.00;0.33;;;;;;;;4985781;28;45343;-72
2022/05/20 08:47:12;;;;;;;;;0.00;0.00;;;;;;;;4984000;28;45615;-71
2022/05/20 08:49:38;;;;;;;;;0.00;0.00;;;;;;;;4984185;28;45427;-71
2022/05/20 08:52:04;;;;;;;;;1.33;0.00;;;;;;;;4979013;28;45400;-71
2022/05/20 08:54:29;;;;;;;;;1.67;0.33;;;;;;;;4992576;28;45364;-71
2022/05/20 08:56:54;;;;;;;;;0.00;0.00;;;;;;;;4983194;28;45227;-72
2022/05/20 08:59:20;;;;;;;;;0.00;0.00;;;;;;;;4983737;28;46582;-72
2022/05/20 09:01:47;;;;;;;;;1.33;1.00;;;;;;;;4988414;28;47305;-72
2022/05/20 09:04:14;;;;;;;;;1.67;0.00;;;;;;;;4994968;28;45650;-72
2022/05/20 09:06:40;;;;;;;;;0.00;0.00;;;;;;;;4978723;28;45531;-72
2022/05/20 09:09:14;;;;;;;;;0.00;0.00;;;;;;;;4977441;28;45432;-71
2022/05/20 09:11:41;;;;;;;;;2.00;0.00;;;;;;;;4985880;28;47318;-72
2022/05/20 09:17:12;;;;;;;;;2.00;0.67;;;;;;;;4987226;28;45587;-72
2022/05/20 09:19:38;;;;;;;;;2.00;1.67;;;;;;;;4987022;28;45464;-72
2022/05/20 09:22:05;;;;;;;;;0.00;0.00;;;;;;;;4996664;28;46231;-72
2022/05/20 09:24:38;;;;;;;;;2.00;0.00;;;;;;;;4997480;28;45833;-71
2022/05/20 09:27:05;;;;;;;;;0.00;0.00;;;;;;;;4986891;28;45540;-72
2022/05/20 09:29:33;;;;;;;;;0.67;0.67;;;;;;;;4992097;28;45535;-71
2022/05/20 09:32:01;;;;;;;;;3.00;0.67;;;;;;;;4993290;28;47071;-71
2022/05/20 09:34:30;;;;;;;;;2.67;0.00;;;;;;;;4997476;28;45529;-72
2022/05/20 09:37:06;;;;;;;;;0.67;0.67;;;;;;;;4982229;28;45547;-71
2022/05/20 09:39:34;;;;;;;;;0.33;0.33;;;;;;;;4995994;28;45333;-71
2022/05/20 09:42:07;;;;;;;;;1.00;0.00;;;;;;;;4985067;28;46164;-71
2022/05/20 09:44:40;;;;;;;;;1.00;1.00;;;;;;;;4990760;28;45713;-72
2022/05/20 09:47:05;;;;;;;;;0.00;0.00;;;;;;;;4993252;28;45412;-71
2022/05/20 09:49:37;;;;;;;;;0.00;0.00;;;;;;;;4996168;28;45428;-72
2022/05/20 09:52:03;;;;;;;;;1.00;1.00;;;;;;;;4983475;28;46382;-71
2022/05/20 09:54:30;;;;;;;;;0.33;0.33;;;;;;;;4997846;28;45522;-72
2022/05/20 09:56:57;;;;;;;;;1.33;0.00;;;;;;;;4985647;28;45326;-71
2022/05/20 09:59:41;;;;;;;;;0.00;0.00;;;;;;;;4990105;28;45574;-71
2022/05/20 10:02:06;;;;;;;;;1.33;0.00;;;;;;;;4992175;28;46091;-72
2022/05/20 10:04:36;;;;;;;;;1.00;1.00;;;;;;;;4992821;28;45416;-71
2022/05/20 10:07:04;;;;;;;;;0.00;0.00;;;;;;;;4994444;28;45395;-72
2022/05/20 10:09:32;;;;;;;;;1.67;1.67;;;;;;;;4979118;28;45267;-71
2022/05/20 10:12:04;;;;;;;;;1.00;1.00;;;;;;;;4984882;28;45491;-71
2022/05/20 10:14:29;;;;;;;;;0.00;0.00;;;;;;;;4986090;28;45359;-71
2022/05/20 10:17:03;;;;;;;;;2.00;1.00;;;;;;;;4986098;28;45432;-71
2022/05/20 10:19:40;;;;;;;;;0.00;0.00;;;;;;;;4982284;28;45378;-71
2022/05/20 10:22:14;;;;;;;;;2.00;0.67;;;;;;;;4994150;28;45926;-71
2022/05/20 10:24:48;;;;;;;;;0.00;0.00;;;;;;;;4995652;28;45446;-71
2022/05/20 10:27:19;;;;;;;;;1.00;0.67;;;;;;;;4982699;28;45356;-71
2022/05/20 10:33:04;;;;;;;;;1.67;0.00;;;;;;;;4991508;28;45907;-71
2022/05/20 10:35:49;;;;;;;;;0.00;0.00;;;;;;;;4987176;28;45392;-71
2022/05/20 10:38:30;;;;;;;;;1.00;0.67;;;;;;;;4985784;28;45175;-71
2022/05/20 10:41:01;;;;;;;;;1.00;1.00;;;;;;;;4989374;28;45607;-70
2022/05/20 10:48:34;;;;;;;;;0.00;0.00;;;;;;;;4992004;28;47143;-71
2022/05/20 10:49:17;;;;;;;;;2.00;1.00;;;;;;;;4984867;28;45464;-71
2022/05/20 10:51:54;;;;;;;;;0.00;0.00;;;;;;;;4995917;28;45312;-70
2022/05/20 10:54:28;;;;;;;;;1.67;0.00;;;;;;;;4993124;28;46146;-71
2022/05/20 10:57:08;;;;;;;;;2.33;1.00;;;;;;;;4991503;28;45538;-70
2022/05/20 10:59:39;;;;;;;;;2.00;2.00;;;;;;;;4986986;28;45459;-71
2022/05/20 11:02:13;;;;;;;;;1.00;1.00;;;;;;;;4990575;28;45377;-70
2022/05/20 11:04:58;;;;;;;;;5.00;0.00;;;;;;;;4991642;28;47349;-70
2022/05/20 11:07:42;;;;;;;;;2.33;2.33;;;;;;;;4995925;28;45539;-70
2022/05/20 11:10:07;;;;;;;;;3.33;2.33;;;;;;;;4983187;28;45449;-70
2022/05/20 11:12:40;;;;;;;;;3.67;2.33;;;;;;;;4994228;28;45556;-70
2022/05/20 11:15:08;;;;;;;;;2.00;2.00;;;;;;;;4981339;28;45333;-70
2022/05/20 11:17:39;;;;;;;;;2.00;2.00;;;;;;;;4989607;28;45420;-71
2022/05/20 11:20:13;;;;;;;;;4.33;3.33;;;;;;;;4990015;28;45385;-71
2022/05/20 11:22:57;;;;;;;;;4.00;3.00;;;;;;;;4985150;28;45376;-70
2022/05/20 11:25:25;;;;;;;;;2.00;2.00;;;;;;;;4983077;28;47366;-70
2022/05/20 11:28:10;;;;;;;;;0.33;0.33;;;;;;;;4980419;28;45349;-70
2022/05/20 11:30:44;;;;;;;;;2.00;2.00;;;;;;;;4994205;28;45331;-71
2022/05/20 11:33:18;;;;;;;;;4.33;2.00;;;;;;;;4992037;28;45482;-70
2022/05/20 11:35:47;;;;;;;;;4.00;3.00;;;;;;;;4983777;28;46167;-70
2022/05/20 11:38:12;;;;;;;;;2.67;2.67;;;;;;;;4984498;28;45666;-71
2022/05/20 11:40:37;;;;;;;;;2.25;2.25;;;;;;;;4984665;28;45542;-71
2022/05/20 11:43:14;;;;;;;;;2.00;2.00;;;;;;;;4980554;28;45578;-71
2022/05/20 11:45:48;;;;;;;;;3.67;2.33;;;;;;;;4993806;28;46375;-71
2022/05/20 11:48:36;;;;;;;;;2.67;1.00;;;;;;;;4981520;28;45653;-71
2022/05/20 11:51:24;;;;;;;;;2.67;1.33;;;;;;;;4986811;28;45441;-71
2022/05/20 11:53:57;;;;;;;;;2.67;2.00;;;;;;;;4984064;28;45255;-71
2022/05/20 11:56:42;;;;;;;;;2.67;1.33;;;;;;;;5091950;27;45398;-71
2022/05/20 11:59:23;;;;;;;;;2.33;2.33;;;;;;;;5091482;27;45444;-71
2022/05/20 12:01:49;;;;;;;;;3.00;3.00;;;;;;;;5087317;27;45470;-71
2022/05/20 12:04:16;;;;;;;;;1.33;1.33;;;;;;;;5086630;27;45439;-71
2022/05/20 12:06:48;;;;;;;;;2.00;2.00;;;;;;;;5095039;27;45418;-71
2022/05/20 12:09:32;;;;;;;;;2.33;2.00;;;;;;;;5090058;27;45366;-71
2022/05/20 12:12:16;;;;;;;;;2.00;1.00;;;;;;;;5087863;27;45421;-71
2022/05/20 12:14:57;;;;;;;;;2.00;2.00;;;;;;;;5084426;27;45954;-71
2022/05/20 12:17:30;;;;;;;;;3.00;3.00;;;;;;;;5085537;27;45373;-71
2022/05/20 12:25:37;;;;;;;;;1.00;1.00;;;;;;;;5095724;27;45433;-71
2022/05/20 12:28:25;;;;;;;;;1.33;1.00;;;;;;;;5088819;27;45292;-71
2022/05/20 12:31:06;;;;;;;;;1.00;1.00;;;;;;;;5084074;27;45374;-71
2022/05/20 12:33:50;;;;;;;;;1.00;1.00;;;;;;;;5088493;27;46038;-71
2022/05/20 12:36:15;;;;;;;;;2.33;2.33;;;;;;;;5086912;27;45339;-71
2022/05/20 12:38:40;;;;;;;;;1.33;1.33;;;;;;;;5086409;27;47279;-71
2022/05/20 12:41:16;;;;;;;;;2.00;2.00;;;;;;;;5085377;27;45448;-71
2022/05/20 12:43:47;;;;;;;;;1.00;1.00;;;;;;;;5085940;27;45541;-71
2022/05/20 12:46:17;;;;;;;;;1.00;1.00;;;;;;;;5073432;27;45498;-71
2022/05/20 12:48:42;;;;;;;;;1.00;1.00;;;;;;;;5106009;27;47190;-71
2022/05/20 12:51:09;;;;;;;;;3.00;1.00;;;;;;;;5087709;27;45406;-71
2022/05/20 12:53:35;;;;;;;;;2.00;2.00;;;;;;;;5096702;27;45294;-72
2022/05/20 12:56:00;;;;;;;;;2.33;2.00;;;;;;;;5083417;27;45522;-71
2022/05/20 12:58:27;;;;;;;;;1.00;1.00;;;;;;;;5078810;27;47252;-71
2022/05/20 13:00:54;;;;;;;;;2.00;0.67;;;;;;;;5075780;27;45446;-72
2022/05/20 13:03:35;;;;;;;;;1.00;1.00;;;;;;;;5084688;27;45343;-71
2022/05/20 13:06:13;;;;;;;;;1.00;1.00;;;;;;;;5083756;27;45351;-71
2022/05/20 13:08:48;;;;;;;;;1.67;1.67;;;;;;;;5064088;27;46205;-71
2022/05/20 13:11:14;;;;;;;;;0.00;0.00;;;;;;;;5067714;27;45406;-71
2022/05/20 13:13:40;;;;;;;;;1.00;1.00;;;;;;;;5070787;28;45366;-71
2022/05/20 13:16:08;;;;;;;;;2.00;1.00;;;;;;;;5073591;28;45553;-70
2022/05/20 13:18:34;;;;;;;;;1.67;1.67;;;;;;;;5074424;27;46131;-71
2022/05/20 13:21:01;;;;;;;;;1.00;1.00;;;;;;;;5062129;28;45617;-71
2022/05/20 13:23:31;;;;;;;;;2.00;1.00;;;;;;;;5071627;28;46036;-72
2022/05/20 13:25:56;;;;;;;;;1.67;1.67;;;;;;;;5072002;27;45405;-71
2022/05/20 13:28:32;;;;;;;;;1.00;1.00;;;;;;;;5076774;27;46367;-71
2022/05/20 13:31:01;;;;;;;;;1.00;1.00;;;;;;;;5059565;27;45485;-71
2022/05/20 13:33:27;;;;;;;;;1.67;1.67;;;;;;;;5060539;28;45558;-71
2022/05/20 13:35:53;;;;;;;;;3.00;1.00;;;;;;;;5073144;27;45511;-72
2022/05/20 13:38:20;;;;;;;;;1.00;1.00;;;;;;;;5070823;28;46106;-71
2022/05/20 13:40:46;;;;;;;;;1.00;1.00;;;;;;;;5070682;28;45406;-71
2022/05/20 13:43:13;;;;;;;;;1.00;1.00;;;;;;;;5059981;27;45742;-71
2022/05/20 13:51:20;;;;;;;;;1.67;1.33;;;;;;;;5065599;27;45293;-71
2022/05/20 13:53:48;;;;;;;;;1.33;1.33;;;;;;;;5061877;27;45500;-71
2022/05/20 13:56:13;;;;;;;;;1.00;1.00;;;;;;;;5074275;27;45371;-71
2022/05/20 13:58:41;;;;;;;;;3.00;1.00;;;;;;;;5072048;27;46174;-71
2022/05/20 14:01:08;;;;;;;;;4.00;1.00;;;;;;;;5072437;28;45812;-71
2022/05/20 14:03:37;;;;;;;;;2.00;2.00;;;;;;;;5074095;28;45427;-71
2022/05/20 14:06:17;;;;;;;;;2.67;1.00;;;;;;;;5061409;28;45343;-72
2022/05/20 14:08:51;;;;;;;;;1.00;1.00;;;;;;;;5070301;27;45550;-71
2022/05/20 14:11:18;;;;;;;;;1.67;1.00;;;;;;;;5068774;27;45591;-71
2022/05/20 14:13:44;;;;;;;;;1.00;1.00;;;;;;;;5061975;28;45509;-71
2022/05/20 14:16:19;;;;;;;;;1.67;1.00;;;;;;;;5068062;27;45349;-71
2022/05/20 14:18:46;;;;;;;;;1.00;1.00;;;;;;;;5072884;27;46197;-71
2022/05/20 14:21:14;;;;;;;;;1.00;1.00;;;;;;;;5061566;28;45276;-71
2022/05/20 14:23:45;;;;;;;;;0.67;0.67;;;;;;;;5071200;27;45617;-71
2022/05/20 14:26:21;;;;;;;;;3.00;1.00;;;;;;;;5067833;27;45354;-71
2022/05/20 14:28:46;;;;;;;;;1.00;1.00;;;;;;;;5071562;28;48796;-71
2022/05/20 14:31:18;;;;;;;;;2.00;1.00;;;;;;;;5074383;27;45606;-71
2022/05/20 14:33:45;;;;;;;;;1.33;1.33;;;;;;;;5072899;28;45315;-71
2022/05/20 14:36:11;;;;;;;;;1.00;1.00;;;;;;;;5075267;28;45345;-71
2022/05/20 14:38:44;;;;;;;;;1.00;1.00;;;;;;;;5072689;28;47336;-71
2022/05/20 14:41:16;;;;;;;;;2.33;1.00;;;;;;;;5072721;27;45734;-71
2022/05/20 14:43:50;;;;;;;;;1.00;1.00;;;;;;;;5071754;27;45312;-71
2022/05/20 14:47:14;;;;;;;;;1.00;1.00;;;;;;;;5073293;28;45524;-71
2022/05/20 14:49:06;;;;;;;;;1.00;1.00;;;;;;;;5073524;27;45340;-71
2022/05/20 14:51:31;;;;;;;;;1.00;1.00;;;;;;;;5072542;28;45243;-71
2022/05/20 14:53:59;;;;;;;;;1.00;1.00;;;;;;;;5074391;28;45322;-71
2022/05/20 14:56:34;;;;;;;;;2.33;2.00;;;;;;;;5073995;27;45857;-71
2022/05/20 14:58:59;;;;;;;;;2.00;2.00;;;;;;;;5071298;27;46346;-71
2022/05/20 15:01:28;;;;;;;;;6.50;4.00;;;;;;;;5072117;28;45669;-71
2022/05/20 15:03:54;;;;;;;;;2.00;2.00;;;;;;;;5072570;27;45537;-71
2022/05/20 15:06:41;;;;;;;;;2.00;2.00;;;;;;;;5075024;28;45405;-71
2022/05/20 15:09:07;;;;;;;;;2.33;2.00;;;;;;;;5072643;28;46579;-70
2022/05/20 15:11:34;;;;;;;;;1.00;1.00;;;;;;;;5073085;27;45664;-72
2022/05/20 15:14:00;;;;;;;;;1.67;1.33;;;;;;;;5070483;28;45607;-72
2022/05/20 15:16:25;;;;;;;;;2.33;2.33;;;;;;;;5073218;28;45522;-72
2022/05/20 15:18:51;;;;;;;;;2.00;2.00;;;;;;;;5073234;27;46034;-72
2022/05/20 15:21:22;;;;;;;;;2.00;2.00;;;;;;;;5074434;28;45943;-72
2022/05/20 15:23:49;;;;;;;;;1.00;1.00;;;;;;;;5073183;28;45595;-72
2022/05/20 15:26:24;;;;;;;;;2.00;2.00;;;;;;;;5070140;28;45621;-71
2022/05/20 15:28:53;;;;;;;;;2.00;2.00;;;;;;;;5070678;27;45339;-72
2022/05/20 15:36:48;;;;;;;;;2.67;2.00;;;;;;;;5072660;27;45521;-72